Terminal Aerodrome Forecast
Issued by NWS Sterling, VA

Home | Current Version | Previous Version | Text Only | Print | Product List | Glossary On
Versions: 1 2 3 4 5 6 7 8 9 10 11 12 13 14 15
886
FTUS41 KLWX 040520
TAFCHO
TAF
KCHO 040520Z 0406/0506 VRB03KT P6SM BKN200
     FM050300 16004KT 5SM -RA BR OVC020=

USA.gov is the U.S. government's official web portal to all federal, state and local government web resources and services.